Time;durP1;ratioP1;P1;durP2;ratioP2;P2;SDS_P1;SDS_P2;PMS_P1;PMS_P2;Temp;Humidity;BMP_temperature;BMP_pressure;BME280_temperature;BME280_humidity;BME280_pressure;Samples;Min_cycle;Max_cycle;Signal;HPM_P1;HPM_P2
2023/04/22 00:00:16;;;;;;;1.15;0.77;;;18.50;82.00;;;;;;5044775;28;45422;-70
2023/04/22 00:02:43;;;;;;;0.65;0.65;;;18.40;81.90;;;;;;5044530;28;45341;-70
2023/04/22 00:05:12;;;;;;;1.23;0.68;;;18.40;81.80;;;;;;5044801;28;45326;-70
2023/04/22 00:07:39;;;;;;;0.93;0.80;;;18.40;81.70;;;;;;5044586;28;45369;-70
2023/04/22 00:10:06;;;;;;;0.70;0.70;;;18.40;81.70;;;;;;5043290;28;45466;-70
2023/04/22 00:12:34;;;;;;;1.70;0.60;;;18.40;81.50;;;;;;5044444;28;45410;-70
2023/04/22 00:15:02;;;;;;;0.80;0.77;;;18.40;81.80;;;;;;5044236;28;45147;-70
2023/04/22 00:17:28;;;;;;;0.68;0.60;;;18.40;81.90;;;;;;5044692;28;45235;-70
2023/04/22 00:19:56;;;;;;;1.00;0.88;;;18.40;82.10;;;;;;5044582;28;45327;-70
2023/04/22 00:22:22;;;;;;;0.80;0.70;;;18.40;81.90;;;;;;5044493;28;47463;-70
2023/04/22 00:24:49;;;;;;;1.33;0.82;;;18.50;82.10;;;;;;5044674;28;45389;-70
2023/04/22 00:27:16;;;;;;;0.82;0.80;;;18.50;82.10;;;;;;5044183;28;45266;-70
2023/04/22 00:29:44;;;;;;;1.42;0.73;;;18.50;81.90;;;;;;5044471;28;45415;-70
2023/04/22 00:32:11;;;;;;;1.10;0.85;;;18.50;82.20;;;;;;5044311;28;47873;-70
2023/04/22 00:34:38;;;;;;;0.98;0.57;;;18.50;81.90;;;;;;5043983;28;45254;-70
2023/04/22 00:37:04;;;;;;;0.60;0.60;;;18.50;82.10;;;;;;5044740;28;45286;-70
2023/04/22 00:39:31;;;;;;;0.93;0.80;;;18.50;81.90;;;;;;5044238;28;45285;-70
2023/04/22 00:41:58;;;;;;;1.15;0.55;;;18.50;81.70;;;;;;5044106;28;47591;-70
2023/04/22 00:44:26;;;;;;;1.15;0.60;;;18.50;81.90;;;;;;5044389;28;45334;-70
2023/04/22 00:46:55;;;;;;;0.60;0.60;;;18.50;81.80;;;;;;5047012;28;45164;-70
2023/04/22 00:49:23;;;;;;;1.05;0.60;;;18.40;81.60;;;;;;5044357;28;45222;-70
2023/04/22 00:51:50;;;;;;;0.57;0.47;;;18.40;81.60;;;;;;5044153;28;47011;-70
2023/04/22 00:54:16;;;;;;;0.80;0.70;;;18.40;81.50;;;;;;5044085;28;45202;-70
2023/04/22 00:56:44;;;;;;;1.75;0.90;;;18.40;81.40;;;;;;5044140;28;45213;-70
2023/04/22 00:59:11;;;;;;;0.82;0.80;;;18.40;81.40;;;;;;5043989;28;45790;-70
2023/04/22 01:01:38;;;;;;;1.30;0.85;;;18.40;81.30;;;;;;5044009;28;45144;-70
2023/04/22 01:04:06;;;;;;;0.95;0.77;;;18.40;81.50;;;;;;5043894;28;45535;-70
2023/04/22 01:06:36;;;;;;;0.82;0.70;;;18.40;81.40;;;;;;5044129;28;45288;-70
2023/04/22 01:09:03;;;;;;;0.85;0.75;;;18.40;81.30;;;;;;5043989;28;45489;-70
2023/04/22 01:11:30;;;;;;;2.05;0.90;;;18.40;81.50;;;;;;5043902;28;45554;-70
2023/04/22 01:13:57;;;;;;;1.55;0.80;;;18.40;81.60;;;;;;5043682;28;45196;-70
2023/04/22 01:16:27;;;;;;;1.20;1.10;;;18.40;81.50;;;;;;5043938;28;45209;-70
2023/04/22 01:18:54;;;;;;;0.93;0.88;;;18.50;81.60;;;;;;5044270;28;45196;-70
2023/04/22 01:21:23;;;;;;;1.52;0.80;;;18.40;81.40;;;;;;5043506;28;46754;-70
2023/04/22 01:23:51;;;;;;;0.95;0.70;;;18.50;81.60;;;;;;5043808;28;45214;-70
2023/04/22 01:26:18;;;;;;;0.80;0.80;;;18.40;81.50;;;;;;5043794;28;45191;-70
2023/04/22 01:28:45;;;;;;;0.85;0.80;;;18.40;81.40;;;;;;5043812;28;45180;-70
2023/04/22 01:31:12;;;;;;;2.80;0.82;;;18.50;81.50;;;;;;5043447;28;46579;-70
2023/04/22 01:33:39;;;;;;;0.90;0.82;;;18.40;81.10;;;;;;5043441;28;45164;-70
2023/04/22 01:36:06;;;;;;;0.85;0.80;;;18.40;81.50;;;;;;5043688;28;45198;-70
2023/04/22 01:38:34;;;;;;;0.98;0.80;;;18.40;81.20;;;;;;5046568;28;45157;-69
2023/04/22 01:41:03;;;;;;;0.80;0.70;;;18.40;81.20;;;;;;5043250;28;46371;-70
2023/04/22 01:43:30;;;;;;;1.40;1.13;;;18.40;81.20;;;;;;5043258;28;45161;-70
2023/04/22 01:45:57;;;;;;;1.98;1.05;;;18.40;81.00;;;;;;5043425;28;45078;-70
2023/04/22 01:48:24;;;;;;;2.17;1.25;;;18.40;81.00;;;;;;5043588;28;45097;-70
2023/04/22 01:50:51;;;;;;;1.73;1.10;;;18.40;80.80;;;;;;5043068;28;45253;-70
2023/04/22 01:53:17;;;;;;;1.20;0.80;;;18.40;80.70;;;;;;5043734;28;45294;-70
2023/04/22 01:55:44;;;;;;;1.33;0.88;;;18.40;80.70;;;;;;5043659;28;45328;-70
2023/04/22 01:58:13;;;;;;;1.50;1.30;;;18.40;80.70;;;;;;5043877;28;45415;-70
2023/04/22 02:00:39;;;;;;;1.45;1.10;;;18.40;80.50;;;;;;5043260;28;46084;-70
2023/04/22 02:03:06;;;;;;;1.90;1.10;;;18.40;80.60;;;;;;5043169;28;45315;-70
2023/04/22 02:05:33;;;;;;;2.35;1.30;;;18.50;81.10;;;;;;5043633;28;45264;-70
2023/04/22 02:08:00;;;;;;;1.65;1.17;;;18.40;81.00;;;;;;5043755;28;45158;-70
2023/04/22 02:10:26;;;;;;;2.10;1.20;;;18.40;80.80;;;;;;5042958;28;46577;-70
2023/04/22 02:12:53;;;;;;;1.40;0.98;;;18.40;80.80;;;;;;5043184;28;45066;-70
2023/04/22 02:15:22;;;;;;;1.85;1.40;;;18.40;80.80;;;;;;5043702;28;45251;-70
2023/04/22 02:17:49;;;;;;;1.80;1.30;;;18.50;81.00;;;;;;5043379;28;45576;-70
2023/04/22 02:20:16;;;;;;;1.50;1.25;;;18.40;80.80;;;;;;5042764;28;46605;-70
2023/04/22 02:22:44;;;;;;;2.25;1.30;;;18.40;80.80;;;;;;5043064;28;45090;-70
2023/04/22 02:25:12;;;;;;;2.00;1.30;;;18.40;80.80;;;;;;5043225;28;45121;-70
2023/04/22 02:27:39;;;;;;;3.95;1.50;;;18.40;80.70;;;;;;5042838;28;45488;-70
2023/04/22 02:30:08;;;;;;;2.30;1.60;;;18.40;80.20;;;;;;5045689;28;45083;-70
2023/04/22 02:32:38;;;;;;;1.85;1.30;;;18.40;80.50;;;;;;5043411;28;45890;-70
2023/04/22 02:35:06;;;;;;;2.40;1.52;;;18.40;80.60;;;;;;5046376;28;45360;-70
2023/04/22 02:37:33;;;;;;;2.05;1.42;;;18.40;80.40;;;;;;5045903;28;45099;-70
2023/04/22 02:39:59;;;;;;;1.65;1.25;;;18.40;80.50;;;;;;5045484;28;48354;-70
2023/04/22 02:42:26;;;;;;;2.17;1.70;;;18.40;80.50;;;;;;5046140;28;45384;-70
2023/04/22 02:44:53;;;;;;;2.03;1.60;;;18.40;80.30;;;;;;5045694;28;45258;-70
2023/04/22 02:47:21;;;;;;;2.15;1.60;;;18.40;80.30;;;;;;5045644;28;45505;-70
2023/04/22 02:49:50;;;;;;;2.67;1.70;;;18.40;80.10;;;;;;5045073;28;45234;-70
2023/04/22 02:52:16;;;;;;;1.80;1.58;;;18.40;80.20;;;;;;5045638;28;45273;-70
2023/04/22 02:54:43;;;;;;;1.92;1.40;;;18.40;80.10;;;;;;5045517;28;45296;-70
2023/04/22 02:57:10;;;;;;;2.10;1.58;;;18.40;80.20;;;;;;5046122;28;45157;-70
2023/04/22 02:59:37;;;;;;;1.63;1.40;;;18.40;80.30;;;;;;5045127;28;46326;-70
2023/04/22 03:02:03;;;;;;;2.75;1.30;;;18.40;80.40;;;;;;5045705;28;45174;-70
2023/04/22 03:04:31;;;;;;;2.35;1.70;;;18.40;80.40;;;;;;5045666;28;45219;-70
2023/04/22 03:06:59;;;;;;;1.70;1.40;;;18.40;80.20;;;;;;5045428;28;45202;-70
2023/04/22 03:09:26;;;;;;;1.63;1.40;;;18.40;80.30;;;;;;5045334;28;47064;-70
2023/04/22 03:11:52;;;;;;;3.30;1.70;;;18.40;80.30;;;;;;5045523;28;45721;-70
2023/04/22 03:14:19;;;;;;;1.88;1.40;;;18.50;80.20;;;;;;5045840;28;45187;-70
2023/04/22 03:16:46;;;;;;;2.33;1.70;;;18.50;80.30;;;;;;5045408;28;45438;-70
2023/04/22 03:19:13;;;;;;;1.70;1.45;;;18.40;80.40;;;;;;5045185;28;48140;-70
2023/04/22 03:21:39;;;;;;;1.80;1.30;;;18.40;80.40;;;;;;5048387;28;45347;-70
2023/04/22 03:24:08;;;;;;;2.40;1.70;;;18.40;80.10;;;;;;5045320;28;45321;-70
2023/04/22 03:26:34;;;;;;;2.67;1.90;;;18.40;79.90;;;;;;5045430;28;45223;-70
2023/04/22 03:29:01;;;;;;;1.80;1.48;;;18.40;79.80;;;;;;5045331;28;47810;-70
2023/04/22 03:31:28;;;;;;;1.90;1.33;;;18.40;79.90;;;;;;5044910;28;45719;-70
2023/04/22 03:33:55;;;;;;;2.25;1.45;;;18.40;79.70;;;;;;5045209;28;45211;-70
2023/04/22 03:36:21;;;;;;;3.42;1.60;;;18.40;79.50;;;;;;5045519;28;45396;-70
2023/04/22 03:38:48;;;;;;;1.85;1.50;;;18.40;79.40;;;;;;5044787;28;46642;-70
2023/04/22 03:41:16;;;;;;;1.83;1.30;;;18.40;79.40;;;;;;5044823;28;45200;-71
2023/04/22 03:43:43;;;;;;;2.00;1.33;;;18.40;79.30;;;;;;5045090;28;45531;-70
2023/04/22 03:46:10;;;;;;;1.58;1.40;;;18.40;79.30;;;;;;5045250;28;45398;-70
2023/04/22 03:48:37;;;;;;;3.78;1.20;;;18.40;79.40;;;;;;5045123;28;47699;-70
2023/04/22 03:51:04;;;;;;;1.60;1.20;;;18.40;79.60;;;;;;5044379;28;45328;-70
2023/04/22 03:53:31;;;;;;;2.30;1.30;;;18.40;79.70;;;;;;5045417;28;45150;-70
2023/04/22 03:55:57;;;;;;;1.70;1.30;;;18.40;79.80;;;;;;5044993;28;45683;-70
2023/04/22 03:58:26;;;;;;;1.73;1.25;;;18.40;79.70;;;;;;5044822;28;47351;-70
2023/04/22 04:00:52;;;;;;;1.83;1.30;;;18.40;79.60;;;;;;5044464;28;45646;-70
2023/04/22 04:03:19;;;;;;;1.67;1.20;;;18.40;79.60;;;;;;5045316;28;45274;-70
2023/04/22 04:05:46;;;;;;;1.88;1.17;;;18.40;79.60;;;;;;5044924;28;45070;-71
2023/04/22 04:08:13;;;;;;;1.30;1.10;;;18.40;79.20;;;;;;5044750;28;47333;-70
2023/04/22 04:10:40;;;;;;;1.35;1.25;;;18.40;79.40;;;;;;5044560;28;45214;-70
2023/04/22 04:13:07;;;;;;;2.03;1.30;;;18.40;79.20;;;;;;5047689;28;45334;-70
2023/04/22 04:15:35;;;;;;;1.92;1.45;;;18.40;79.20;;;;;;5045101;28;45139;-70
2023/04/22 04:18:03;;;;;;;1.70;1.27;;;18.40;79.10;;;;;;5044299;28;46830;-71
2023/04/22 04:20:30;;;;;;;1.67;1.27;;;18.40;79.00;;;;;;5044385;28;45518;-70
2023/04/22 04:22:56;;;;;;;2.35;1.70;;;18.40;78.90;;;;;;5044864;28;45318;-71
2023/04/22 04:25:23;;;;;;;1.25;1.15;;;18.40;79.00;;;;;;5044651;28;45120;-70
2023/04/22 04:27:50;;;;;;;2.22;1.73;;;18.40;78.80;;;;;;5044408;28;47178;-71
2023/04/22 04:30:20;;;;;;;2.38;1.60;;;18.40;78.70;;;;;;5044326;28;45262;-70
2023/04/22 04:32:48;;;;;;;2.92;1.52;;;18.40;78.60;;;;;;5044994;28;45107;-71
2023/04/22 04:35:17;;;;;;;1.63;1.30;;;18.40;78.50;;;;;;5044423;28;45402;-70
2023/04/22 04:37:45;;;;;;;1.63;1.25;;;18.40;78.50;;;;;;5043959;28;46345;-70
2023/04/22 04:40:12;;;;;;;1.90;1.38;;;18.40;78.60;;;;;;5044161;28;45202;-70
2023/04/22 04:42:39;;;;;;;1.45;1.00;;;18.40;78.70;;;;;;5044536;28;45123;-70
2023/04/22 04:45:07;;;;;;;1.45;1.17;;;18.40;78.80;;;;;;5044408;28;45078;-70
2023/04/22 04:47:34;;;;;;;1.58;1.20;;;18.40;78.80;;;;;;5044343;28;48278;-71
2023/04/22 04:50:03;;;;;;;2.47;1.60;;;18.40;78.90;;;;;;5043873;28;45237;-71
2023/04/22 04:52:30;;;;;;;1.50;1.30;;;18.40;78.70;;;;;;5044223;28;45224;-71
2023/04/22 04:54:57;;;;;;;1.42;1.08;;;18.40;78.80;;;;;;5043892;28;45550;-71
2023/04/22 04:57:24;;;;;;;1.27;1.02;;;18.40;78.70;;;;;;5043832;28;45235;-71
2023/04/22 04:59:50;;;;;;;2.13;1.42;;;18.40;78.70;;;;;;5044058;28;45232;-71
2023/04/22 05:02:17;;;;;;;1.80;1.30;;;18.40;78.90;;;;;;5044145;28;45210;-71
2023/04/22 05:04:44;;;;;;;1.67;1.20;;;18.40;78.80;;;;;;5047054;28;45499;-71
2023/04/22 05:07:12;;;;;;;1.20;1.00;;;18.40;78.60;;;;;;5044178;28;46681;-71
2023/04/22 05:09:39;;;;;;;1.63;1.10;;;18.40;78.50;;;;;;5044005;28;45181;-71
2023/04/22 05:12:06;;;;;;;1.33;1.08;;;18.40;78.50;;;;;;5044012;28;45362;-71
2023/04/22 05:14:32;;;;;;;1.20;1.02;;;18.40;78.50;;;;;;5044134;28;45050;-71
2023/04/22 05:16:59;;;;;;;1.33;1.17;;;18.40;78.30;;;;;;5043852;28;46224;-71
2023/04/22 05:19:26;;;;;;;1.20;0.95;;;18.40;78.50;;;;;;5043701;28;45235;-71
2023/04/22 05:21:53;;;;;;;1.75;1.42;;;18.40;78.10;;;;;;5043996;28;45180;-71
2023/04/22 05:24:21;;;;;;;3.88;1.25;;;18.40;78.40;;;;;;5044232;28;45141;-71
2023/04/22 05:26:48;;;;;;;1.35;1.20;;;18.40;78.00;;;;;;5043556;28;46445;-71
2023/04/22 05:29:15;;;;;;;1.27;0.90;;;18.40;77.90;;;;;;5043618;28;45104;-70
2023/04/22 05:31:41;;;;;;;1.33;1.00;;;18.40;78.00;;;;;;5043929;28;45124;-70
2023/04/22 05:34:08;;;;;;;1.40;1.10;;;18.40;78.20;;;;;;5043773;28;45577;-70
2023/04/22 05:36:35;;;;;;;1.00;0.90;;;18.40;78.10;;;;;;5043918;28;45346;-70
2023/04/22 05:39:02;;;;;;;1.35;0.90;;;18.40;78.20;;;;;;5043504;28;45372;-72
2023/04/22 05:41:30;;;;;;;1.30;1.17;;;18.40;78.10;;;;;;5044041;28;45207;-70
2023/04/22 05:43:57;;;;;;;1.65;1.10;;;18.40;78.20;;;;;;5043603;28;45242;-70
2023/04/22 05:46:24;;;;;;;1.75;1.15;;;18.40;78.30;;;;;;5043609;28;46616;-71
2023/04/22 05:48:51;;;;;;;1.48;1.02;;;18.40;78.20;;;;;;5043546;28;45297;-71
2023/04/22 05:51:18;;;;;;;1.25;1.05;;;18.50;78.10;;;;;;5043440;28;45145;-71
2023/04/22 05:53:44;;;;;;;1.40;1.10;;;18.40;78.00;;;;;;5043440;28;45411;-69
2023/04/22 05:56:11;;;;;;;1.58;1.10;;;18.50;78.20;;;;;;5045828;28;47941;-71
2023/04/22 05:58:39;;;;;;;0.82;0.70;;;18.40;78.10;;;;;;5043129;28;45169;-71
2023/04/22 06:01:06;;;;;;;1.58;1.10;;;18.50;78.10;;;;;;5043266;28;45145;-71
2023/04/22 06:03:33;;;;;;;0.95;0.85;;;18.50;78.00;;;;;;5043570;28;45126;-71
2023/04/22 06:06:00;;;;;;;1.75;1.00;;;18.40;78.00;;;;;;5043184;28;47341;-71
2023/04/22 06:08:27;;;;;;;0.85;0.85;;;18.40;77.90;;;;;;5041799;28;45123;-71
2023/04/22 06:10:54;;;;;;;1.10;1.00;;;18.40;78.00;;;;;;5043510;28;45325;-71
2023/04/22 06:13:20;;;;;;;1.33;0.90;;;18.40;77.60;;;;;;5043186;28;45716;-71
2023/04/22 06:15:49;;;;;;;1.10;0.95;;;18.40;78.00;;;;;;5043225;28;46633;-71
2023/04/22 06:18:16;;;;;;;1.40;0.93;;;18.40;78.30;;;;;;5036757;28;45476;-72
2023/04/22 06:20:42;;;;;;;1.35;1.00;;;18.40;78.20;;;;;;5023301;28;45392;-72
2023/04/22 06:23:09;;;;;;;1.08;0.93;;;18.40;78.10;;;;;;5023573;28;45200;-72
2023/04/22 06:25:36;;;;;;;0.80;0.80;;;18.40;78.00;;;;;;5022829;28;47098;-72
2023/04/22 06:28:03;;;;;;;1.20;0.98;;;18.40;78.40;;;;;;5022868;28;45248;-72
2023/04/22 06:30:30;;;;;;;1.15;0.90;;;18.40;78.40;;;;;;5023308;28;45217;-72
2023/04/22 06:32:58;;;;;;;0.80;0.80;;;18.40;78.50;;;;;;5023157;28;45491;-72
2023/04/22 06:35:25;;;;;;;1.17;0.73;;;18.40;78.40;;;;;;5022639;28;46278;-72
2023/04/22 06:37:51;;;;;;;1.23;1.08;;;18.40;78.30;;;;;;5022904;28;45378;-72
2023/04/22 06:40:18;;;;;;;1.70;1.02;;;18.40;78.30;;;;;;5023117;28;45171;-72
2023/04/22 06:42:45;;;;;;;0.80;0.80;;;18.40;78.30;;;;;;5023222;28;45441;-72
2023/04/22 06:45:12;;;;;;;0.85;0.80;;;18.50;78.30;;;;;;5022569;28;46658;-72
2023/04/22 06:47:39;;;;;;;0.95;0.85;;;18.50;78.20;;;;;;5025792;28;45199;-72
2023/04/22 06:50:09;;;;;;;1.73;0.68;;;18.50;78.20;;;;;;5022489;28;45210;-72
2023/04/22 06:52:36;;;;;;;1.05;0.90;;;18.50;78.20;;;;;;5022888;28;45067;-72
2023/04/22 06:55:03;;;;;;;1.13;0.95;;;18.50;78.20;;;;;;5022674;28;47638;-72
2023/04/22 06:57:30;;;;;;;1.40;0.80;;;18.50;78.20;;;;;;5022839;28;45271;-72
2023/04/22 06:59:57;;;;;;;1.67;0.95;;;18.50;78.20;;;;;;5022364;28;45209;-72
2023/04/22 07:02:24;;;;;;;1.23;1.02;;;18.50;78.40;;;;;;5022477;28;45146;-73
2023/04/22 07:04:50;;;;;;;1.58;0.80;;;18.40;78.50;;;;;;5022742;28;45492;-73
2023/04/22 07:07:19;;;;;;;1.05;0.77;;;18.40;78.40;;;;;;5022249;28;45153;-72
2023/04/22 07:09:46;;;;;;;1.00;0.80;;;18.40;78.40;;;;;;5022268;28;45170;-72
2023/04/22 07:12:12;;;;;;;1.05;0.80;;;18.40;78.10;;;;;;5022421;28;45184;-72
2023/04/22 07:14:43;;;;;;;1.05;0.95;;;18.40;78.20;;;;;;5022304;28;45340;-72
2023/04/22 07:17:10;;;;;;;0.85;0.70;;;18.40;78.40;;;;;;5019636;28;45330;-72
2023/04/22 07:19:37;;;;;;;3.17;0.90;;;18.40;78.50;;;;;;5024039;28;45369;-72
2023/04/22 07:22:05;;;;;;;0.95;0.70;;;18.50;78.60;;;;;;5025225;28;45087;-72
2023/04/22 07:24:33;;;;;;;1.20;0.90;;;18.50;78.50;;;;;;5025053;28;46674;-72
2023/04/22 07:27:01;;;;;;;1.35;0.90;;;18.50;78.40;;;;;;5025059;28;45219;-72
2023/04/22 07:29:28;;;;;;;0.80;0.70;;;18.50;78.40;;;;;;5025655;28;45303;-72
2023/04/22 07:31:54;;;;;;;0.73;0.73;;;18.50;78.50;;;;;;5025505;28;45377;-72
2023/04/22 07:34:21;;;;;;;1.20;1.10;;;18.50;78.40;;;;;;5025061;28;46878;-72
2023/04/22 07:36:50;;;;;;;1.10;0.98;;;18.50;78.40;;;;;;5026664;28;45067;-71
2023/04/22 07:39:16;;;;;;;1.13;0.90;;;18.50;78.50;;;;;;5026073;28;45211;-72
2023/04/22 07:41:44;;;;;;;0.80;0.80;;;18.50;78.50;;;;;;5025091;28;45332;-72
2023/04/22 07:44:15;;;;;;;1.55;0.90;;;18.50;78.20;;;;;;5025082;28;47480;-72
2023/04/22 07:46:42;;;;;;;0.85;0.70;;;18.50;78.20;;;;;;5025136;28;45945;-72
2023/04/22 07:49:08;;;;;;;0.88;0.73;;;18.50;78.40;;;;;;5025285;28;45209;-72
2023/04/22 07:51:35;;;;;;;1.58;1.00;;;18.50;77.90;;;;;;5025195;28;45398;-73
2023/04/22 07:54:02;;;;;;;1.45;0.90;;;18.50;78.20;;;;;;5024710;28;45181;-72
2023/04/22 07:56:29;;;;;;;1.48;1.10;;;18.50;78.20;;;;;;5024852;28;45192;-72
2023/04/22 07:58:57;;;;;;;0.88;0.73;;;18.50;78.20;;;;;;5024957;28;45222;-72
2023/04/22 08:01:24;;;;;;;1.13;0.95;;;18.50;78.40;;;;;;5024920;28;45394;-72
2023/04/22 08:03:51;;;;;;;0.98;0.88;;;18.50;78.70;;;;;;5024927;28;47216;-72
2023/04/22 08:06:18;;;;;;;1.10;0.85;;;18.50;78.70;;;;;;5024798;28;45296;-72
2023/04/22 08:08:44;;;;;;;1.00;0.90;;;18.50;78.50;;;;;;5024846;28;45347;-72
2023/04/22 08:11:11;;;;;;;1.02;0.73;;;18.50;78.50;;;;;;5025214;28;45187;-72
2023/04/22 08:13:38;;;;;;;1.52;0.82;;;18.50;78.70;;;;;;5024772;28;46051;-72
2023/04/22 08:16:06;;;;;;;1.00;0.85;;;18.40;78.60;;;;;;5024622;28;45223;-68
2023/04/22 08:18:33;;;;;;;1.60;0.90;;;18.50;78.70;;;;;;5044206;28;45272;-71
2023/04/22 08:21:00;;;;;;;1.55;1.00;;;18.50;78.60;;;;;;5044983;28;45533;-72
2023/04/22 08:23:27;;;;;;;3.65;1.08;;;18.60;77.00;;;;;;5044512;28;47598;-72
2023/04/22 08:25:54;;;;;;;2.83;1.25;;;18.60;77.00;;;;;;5044602;28;45220;-72
2023/04/22 08:28:20;;;;;;;6.97;1.00;;;18.60;77.00;;;;;;5047404;28;45290;-71
2023/04/22 08:30:47;;;;;;;4.72;0.90;;;18.60;77.00;;;;;;5044116;28;45143;-72
2023/04/22 08:33:16;;;;;;;2.53;1.00;;;18.60;76.80;;;;;;5044459;28;45243;-72
2023/04/22 08:35:42;;;;;;;2.35;0.98;;;18.70;76.50;;;;;;5044423;28;45275;-72
2023/04/22 08:38:09;;;;;;;1.35;0.75;;;18.70;76.40;;;;;;5044893;28;45318;-72
2023/04/22 08:40:37;;;;;;;4.32;0.90;;;18.70;76.30;;;;;;5044661;28;45543;-72
2023/04/22 08:43:04;;;;;;;4.30;0.82;;;18.70;76.30;;;;;;5043990;28;46556;-72
2023/04/22 08:45:32;;;;;;;1.95;0.90;;;18.60;76.10;;;;;;5044192;28;45229;-72
2023/04/22 08:47:59;;;;;;;0.90;0.60;;;18.70;76.10;;;;;;5044721;28;45348;-72
2023/04/22 08:50:30;;;;;;;2.10;1.08;;;18.70;76.10;;;;;;5043924;28;45288;-72
2023/04/22 08:52:57;;;;;;;0.70;0.63;;;18.70;76.10;;;;;;5044238;28;45667;-72
2023/04/22 08:55:24;;;;;;;1.02;0.88;;;18.70;75.90;;;;;;5044212;28;45129;-72
2023/04/22 08:57:52;;;;;;;0.80;0.55;;;18.60;75.80;;;;;;5044073;28;45175;-72
2023/04/22 09:00:19;;;;;;;1.60;0.80;;;18.70;75.80;;;;;;5044265;28;45251;-72
2023/04/22 09:02:47;;;;;;;3.10;0.70;;;18.70;75.60;;;;;;5043658;28;46585;-72
2023/04/22 09:05:14;;;;;;;0.70;0.65;;;18.70;75.50;;;;;;5044281;28;45308;-72
2023/04/22 09:07:43;;;;;;;1.42;0.80;;;18.70;75.40;;;;;;5044004;28;45233;-72
2023/04/22 09:10:10;;;;;;;1.67;0.75;;;18.70;75.20;;;;;;5044156;28;45592;-72
2023/04/22 09:12:38;;;;;;;1.80;0.90;;;18.70;75.00;;;;;;5044201;28;47261;-72
2023/04/22 09:15:08;;;;;;;1.98;1.00;;;18.70;74.90;;;;;;5043718;28;45648;-72
2023/04/22 09:17:37;;;;;;;0.77;0.70;;;18.70;74.80;;;;;;5044086;28;45245;-72
2023/04/22 09:20:07;;;;;;;1.00;0.80;;;18.70;74.70;;;;;;5047138;28;45227;-71
2023/04/22 09:22:39;;;;;;;1.55;0.80;;;18.70;74.50;;;;;;5043810;28;46618;-72
2023/04/22 09:25:15;;;;;;;0.90;0.70;;;18.70;74.40;;;;;;5043642;28;45608;-72
2023/04/22 09:27:42;;;;;;;0.77;0.65;;;18.70;74.50;;;;;;5043945;28;45115;-72
2023/04/22 09:30:10;;;;;;;1.27;0.60;;;18.70;74.60;;;;;;5043867;28;45118;-72
2023/04/22 09:32:37;;;;;;;1.90;0.80;;;18.80;74.90;;;;;;5043500;28;46612;-72
2023/04/22 09:35:04;;;;;;;1.00;0.70;;;18.80;74.90;;;;;;5043595;28;45206;-72
2023/04/22 09:37:32;;;;;;;0.73;0.60;;;18.70;74.90;;;;;;5043687;28;45297;-72
2023/04/22 09:39:59;;;;;;;0.73;0.60;;;18.70;74.90;;;;;;5044028;28;45523;-72
2023/04/22 09:42:27;;;;;;;1.00;0.70;;;18.70;75.00;;;;;;5043074;28;47150;-72
2023/04/22 09:44:54;;;;;;;1.15;0.75;;;18.70;75.00;;;;;;5043589;28;45226;-72
2023/04/22 09:47:22;;;;;;;1.63;0.70;;;18.80;75.10;;;;;;5043564;28;45119;-72
2023/04/22 09:49:50;;;;;;;1.52;0.70;;;18.80;75.00;;;;;;5043336;28;45184;-71
2023/04/22 09:52:26;;;;;;;0.38;0.38;;;18.80;76.00;;;;;;5043463;28;47309;-72
2023/04/22 09:54:54;;;;;;;1.00;0.70;;;18.80;75.00;;;;;;5043301;28;45365;-72
2023/04/22 09:57:21;;;;;;;2.97;1.10;;;18.80;74.90;;;;;;5043417;28;45283;-72
2023/04/22 09:59:50;;;;;;;0.80;0.60;;;18.80;74.90;;;;;;5043411;28;45562;-72
2023/04/22 10:02:17;;;;;;;1.65;0.70;;;18.80;75.00;;;;;;5043017;28;47606;-72
2023/04/22 10:04:44;;;;;;;3.67;0.70;;;18.80;74.90;;;;;;5043419;28;45368;-72
2023/04/22 10:07:11;;;;;;;1.00;0.52;;;18.80;74.70;;;;;;5043165;28;45142;-72
2023/04/22 10:09:38;;;;;;;0.57;0.55;;;18.80;74.70;;;;;;5043534;28;45108;-72
2023/04/22 10:12:05;;;;;;;0.73;0.50;;;18.80;74.70;;;;;;5046038;28;45228;-71
2023/04/22 10:14:32;;;;;;;0.70;0.60;;;18.80;74.60;;;;;;5042951;28;45233;-72
2023/04/22 10:17:02;;;;;;;0.98;0.80;;;18.80;74.60;;;;;;5043061;28;45375;-72
2023/04/22 10:19:31;;;;;;;0.80;0.73;;;18.80;74.50;;;;;;5043691;28;45103;-72
2023/04/22 10:22:00;;;;;;;0.57;0.57;;;18.80;74.50;;;;;;5042808;28;45338;-72
2023/04/22 10:24:28;;;;;;;1.80;0.65;;;18.80;74.50;;;;;;5043034;28;45219;-72
2023/04/22 10:26:57;;;;;;;0.80;0.60;;;18.80;74.50;;;;;;5042988;28;45086;-72
2023/04/22 10:29:25;;;;;;;0.88;0.68;;;18.80;74.60;;;;;;5043239;28;45409;-72
2023/04/22 10:31:55;;;;;;;0.50;0.50;;;18.80;74.60;;;;;;5042811;28;45573;-72
2023/04/22 10:34:24;;;;;;;0.40;0.40;;;18.80;74.70;;;;;;5042625;28;45317;-72
2023/04/22 10:36:56;;;;;;;1.00;0.60;;;18.80;74.70;;;;;;5043069;28;45263;-72
2023/04/22 10:39:23;;;;;;;0.57;0.45;;;18.80;74.80;;;;;;5043277;28;45424;-72
2023/04/22 10:41:52;;;;;;;0.82;0.60;;;18.80;74.80;;;;;;5042505;28;46644;-72
2023/04/22 10:44:20;;;;;;;1.27;0.68;;;18.80;74.80;;;;;;5042674;28;45440;-72
2023/04/22 10:46:59;;;;;;;0.80;0.60;;;18.80;74.80;;;;;;5042563;28;45301;-72
2023/04/22 10:49:30;;;;;;;0.70;0.60;;;18.80;74.70;;;;;;5042807;28;45642;-72
2023/04/22 10:51:59;;;;;;;1.33;0.77;;;18.80;75.90;;;;;;5042679;28;47032;-72
2023/04/22 10:54:58;;;;;;;0.77;0.55;;;18.80;74.70;;;;;;5044310;28;45218;-72
2023/04/22 10:57:35;;;;;;;0.70;0.57;;;18.80;74.70;;;;;;5045697;28;45123;-72
2023/04/22 11:00:15;;;;;;;0.82;0.50;;;18.80;74.60;;;;;;5045689;28;45156;-72
2023/04/22 11:02:44;;;;;;;0.90;0.70;;;18.90;74.60;;;;;;5048442;28;48574;-71
2023/04/22 11:05:23;;;;;;;0.88;0.70;;;18.90;74.60;;;;;;5045790;28;45383;-71
2023/04/22 11:07:52;;;;;;;1.58;0.65;;;18.90;74.50;;;;;;5045458;28;45241;-72
2023/04/22 11:10:39;;;;;;;0.50;0.50;;;18.90;74.50;;;;;;5045669;28;45132;-72
2023/04/22 11:13:06;;;;;;;0.30;0.30;;;18.80;74.40;;;;;;5045457;28;45310;-72
2023/04/22 11:15:36;;;;;;;0.60;0.55;;;18.90;74.50;;;;;;5045300;28;45255;-72
2023/04/22 11:18:02;;;;;;;1.58;0.70;;;18.90;74.50;;;;;;5045459;28;45138;-72
2023/04/22 11:20:31;;;;;;;0.98;0.60;;;18.90;74.60;;;;;;5045905;28;45196;-72
2023/04/22 11:22:58;;;;;;;1.00;0.70;;;18.90;74.60;;;;;;5044960;28;45492;-72
2023/04/22 11:25:26;;;;;;;0.45;0.45;;;18.90;74.70;;;;;;5045061;28;46344;-72
2023/04/22 11:27:54;;;;;;;0.63;0.63;;;18.80;74.50;;;;;;5045274;28;45123;-72
2023/04/22 11:30:22;;;;;;;0.98;0.80;;;18.90;74.70;;;;;;5045608;28;45592;-72
2023/04/22 11:32:50;;;;;;;0.40;0.40;;;18.80;74.70;;;;;;5045147;28;47348;-72
2023/04/22 11:35:20;;;;;;;0.95;0.60;;;18.80;74.70;;;;;;5044942;28;45632;-72
2023/04/22 11:37:50;;;;;;;0.55;0.50;;;18.80;74.60;;;;;;5045329;28;45338;-72
2023/04/22 11:40:18;;;;;;;0.60;0.60;;;18.80;74.70;;;;;;5045513;28;45286;-72
2023/04/22 11:42:45;;;;;;;1.35;0.70;;;18.80;74.60;;;;;;5044823;28;45312;-72
2023/04/22 11:45:13;;;;;;;0.60;0.50;;;18.80;74.50;;;;;;5044935;28;45327;-72
2023/04/22 11:47:41;;;;;;;0.60;0.60;;;18.80;74.40;;;;;;5045173;28;45317;-71
2023/04/22 11:50:11;;;;;;;0.65;0.60;;;18.90;74.50;;;;;;5044838;28;45296;-72
2023/04/22 11:52:46;;;;;;;0.70;0.55;;;18.80;74.40;;;;;;5044901;28;45436;-71
2023/04/22 11:55:15;;;;;;;0.73;0.52;;;18.90;74.50;;;;;;5047934;28;45204;-71
2023/04/22 11:57:42;;;;;;;0.45;0.45;;;18.90;74.30;;;;;;5045070;28;45219;-71
2023/04/22 12:00:13;;;;;;;0.93;0.50;;;18.90;74.30;;;;;;5044864;28;45562;-71
2023/04/22 12:02:40;;;;;;;0.50;0.40;;;18.90;74.20;;;;;;5041649;28;46464;-72
2023/04/22 12:05:11;;;;;;;0.68;0.68;;;18.90;74.20;;;;;;5043468;28;45102;-72
2023/04/22 12:07:38;;;;;;;1.23;0.52;;;18.90;74.10;;;;;;5045180;28;45163;-72
2023/04/22 12:10:07;;;;;;;1.75;0.80;;;18.90;74.00;;;;;;5044978;28;45648;-71
2023/04/22 12:12:38;;;;;;;0.47;0.47;;;18.90;74.20;;;;;;5044959;28;45243;-71
2023/04/22 12:15:10;;;;;;;0.70;0.70;;;18.90;74.20;;;;;;5044772;28;45205;-72
2023/04/22 12:17:36;;;;;;;2.47;0.57;;;18.90;74.20;;;;;;5045055;28;45108;-71
2023/04/22 12:20:04;;;;;;;0.70;0.60;;;18.90;74.30;;;;;;5044542;28;45589;-72
2023/04/22 12:22:32;;;;;;;0.82;0.60;;;18.90;74.40;;;;;;5044470;28;46722;-71
2023/04/22 12:24:59;;;;;;;0.50;0.50;;;18.80;74.40;;;;;;5044415;28;45085;-71
2023/04/22 12:27:26;;;;;;;1.42;0.70;;;18.90;74.50;;;;;;5044744;28;45260;-72
2023/04/22 12:29:56;;;;;;;1.25;0.73;;;18.90;74.50;;;;;;5044555;28;45211;-71
2023/04/22 12:32:23;;;;;;;0.65;0.65;;;18.90;74.50;;;;;;5044418;28;47425;-71
2023/04/22 12:34:50;;;;;;;0.93;0.75;;;18.90;75.50;;;;;;5044519;28;45066;-71
2023/04/22 12:37:18;;;;;;;0.93;0.68;;;18.90;74.50;;;;;;5044292;28;45234;-72
2023/04/22 12:39:45;;;;;;;0.75;0.52;;;18.90;74.50;;;;;;5044523;28;45387;-72
2023/04/22 12:42:12;;;;;;;0.70;0.68;;;18.90;74.40;;;;;;5044256;28;46438;-72
2023/04/22 12:44:39;;;;;;;0.80;0.63;;;18.90;74.40;;;;;;5045379;28;45135;-70
2023/04/22 12:47:08;;;;;;;1.40;0.70;;;18.90;74.30;;;;;;5046058;28;45226;-72
2023/04/22 12:49:36;;;;;;;1.05;0.60;;;18.90;74.30;;;;;;5044154;28;45189;-72